• Join FlightAware (Why Join?)
  • Login
  • US Flag 
02:23PM EST


 

Airport Tracker/Info


-or-


 

Live Flight TrackerFlight Track Log ✈ VH-MKM ✈ 01-Jul-2014 ✈ YIVL / IVR - YSBK / BWU

Flight Track Log - Related Links

Times and Time Zones

All times are in EDT time to prevent confusion due to time zone crossing. See the VH-MKM flight status page for this flight to view local times or setup timezone preferences in your user account.

Time Position Orientation Groundspeed Altitude Reporting Facility
EDT Latitude Longitude Course Direction KTS MPH feet Rate Location/Type
01:11AM -29.9620 151.1248 187° South 9,000  Level Aus ATC (Calculated)
01:11AM -29.9620 151.1248 187° South 9,000 -2,820 Level Aus ATC (Calculated)
01:12AM -29.9750 151.1230 206° Southwest 116 133 5,900 -1,800 Descending Aus ATC (RADAR)
01:12AM -29.9948 151.1117 206° Southwest 119 137 6,700 1,020 Climbing Aus ATC (RADAR)
01:13AM -30.0161 151.1071 191° South 118 136 7,300 960 Climbing Aus ATC (RADAR)
01:15AM -30.0651 151.0944 193° South 106 122 9,000 900 Climbing Aus ATC (RADAR)
01:15AM -30.0722 151.0926 193° South 105 121 9,100 60 Climbing Aus ATC (RADAR)
01:16AM -30.0945 151.0868 193° South 120 138 9,100  Level Aus ATC (RADAR)
01:16AM -30.1302 151.0773 193° South 154 177 9,100  Level Aus ATC (RADAR)
01:17AM -30.1601 151.0695 193° South 163 188 9,100  Level Aus ATC (RADAR)
01:18AM -30.1942 151.0605 193° South 166 191 9,100  Level Aus ATC (RADAR)
01:19AM -30.2387 151.0487 193° South 164 189 9,100  Level Aus ATC (RADAR)
01:19AM -30.2568 151.0440 193° South 162 186 9,100  Level Aus ATC (RADAR)
01:20AM -30.2747 151.0393 193° South 160 184 9,100  Level Aus ATC (RADAR)
01:20AM -30.2998 151.0327 193° South 159 183 9,100  Level Aus ATC (RADAR)
01:21AM -30.3360 151.0231 193° South 159 183 9,100  Level Aus ATC (RADAR)
01:22AM -30.3620 151.0164 193° South 163 188 9,100  Level Aus ATC (RADAR)
01:23AM -30.4020 151.0059 193° South 160 184 9,100  Level Aus ATC (RADAR)
01:23AM -30.4129 151.0030 193° South 160 184 9,100  Level Aus ATC (RADAR)
01:23AM -30.4391 150.9963 192° South 163 188 9,100  Level Aus ATC (RADAR)
01:25AM -30.4925 150.9819 193° South 158 182 9,100  Level Aus ATC (RADAR)
01:25AM -30.5110 150.9770 193° South 161 185 9,100  Level Aus ATC (RADAR)
01:26AM -30.5374 150.9704 192° South 165 190 9,100  Level Aus ATC (RADAR)
01:26AM -30.5589 150.9646 193° South 162 186 9,100  Level Aus ATC (RADAR)
01:27AM -30.5875 150.9567 193° South 160 184 9,100  Level Aus ATC (RADAR)
01:27AM -30.6124 150.9498 194° South 158 182 9,100  Level Aus ATC (RADAR)
01:28AM -30.6414 150.9421 193° South 158 182 9,100  Level Aus ATC (RADAR)
01:29AM -30.6682 150.9353 192° South 165 190 9,100  Level Aus ATC (RADAR)
01:30AM -30.7206 150.9218 193° South 164 189 9,100  Level Aus ATC (RADAR)
01:30AM -30.7354 150.9179 193° South 163 188 9,100  Level Aus ATC (RADAR)
01:31AM -30.7621 150.9113 192° South 166 191 9,100  Level Aus ATC (RADAR)
01:31AM -30.7898 150.9030 194° South 158 182 9,100  Level Aus ATC (RADAR)
01:32AM -30.8081 150.8981 193° South 161 185 9,100  Level Aus ATC (RADAR)
01:33AM -30.8382 150.8909 192° South 164 189 9,100  Level Aus ATC (RADAR)
01:33AM -30.8709 150.8820 193° South 161 185 9,100  Level Aus ATC (RADAR)
01:34AM -30.8965 150.8750 193° South 161 185 9,100  Level Aus ATC (RADAR)
01:35AM -30.9513 150.8602 193° South 161 185 9,100  Level Aus ATC (RADAR)
01:35AM -30.9669 150.8567 191° South 165 190 9,100  Level Aus ATC (RADAR)
01:36AM -30.9920 150.8496 194° South 161 185 9,100  Level Aus ATC (RADAR)
01:37AM -31.0259 150.8408 192° South 165 190 9,100  Level Aus ATC (RADAR)
01:37AM -31.0555 150.8329 193° South 164 189 9,100  Level Aus ATC (RADAR)
01:38AM -31.0881 150.8285 187° South 155 178 9,100  Level Aus ATC (RADAR)
01:39AM -31.1072 150.8293 178° South 159 183 9,100  Level Aus ATC (RADAR)
01:40AM -31.1582 150.8295 180° South 167 192 9,100  Level Aus ATC (RADAR)
01:40AM -31.1773 150.8294 180° South 165 190 9,100  Level Aus ATC (RADAR)
01:41AM -31.2003 150.8295 180° South 164 189 9,100  Level Aus ATC (RADAR)
01:41AM -31.2270 150.8293 180° South 164 189 9,100  Level Aus ATC (RADAR)
01:42AM -31.2581 150.8292 180° South 165 190 9,100  Level Aus ATC (RADAR)
01:42AM -31.2855 150.8289 180° South 167 192 9,100  Level Aus ATC (RADAR)
01:43AM -31.3229 150.8301 178° South 174 200 9,100  Level Aus ATC (RADAR)
01:44AM -31.3430 150.8303 180° South 173 199 9,100  Level Aus ATC (RADAR)
01:45AM -31.3938 150.8302 180° South 167 192 9,100  Level Aus ATC (RADAR)
01:45AM -31.4189 150.8322 176° South 174 200 9,100  Level Aus ATC (RADAR)
01:45AM -31.4308 150.8325 179° South 173 199 9,100  Level Aus ATC (RADAR)
01:46AM -31.4609 150.8323 180° South 164 189 9,100  Level Aus ATC (RADAR)
01:47AM -31.4952 150.8323 180° South 163 188 9,100  Level Aus ATC (RADAR)
01:47AM -31.5187 150.8327 179° South 166 191 9,100  Level Aus ATC (RADAR)
01:48AM -31.5488 150.8317 182° South 163 188 9,100  Level Aus ATC (RADAR)
01:49AM -31.5878 150.8316 180° South 166 191 9,100  Level Aus ATC (RADAR)
01:50AM -31.6419 150.8308 181° South 168 193 9,100  Level Aus ATC (RADAR)
01:51AM -31.6651 150.8309 180° South 166 191 9,100  Level Aus ATC (RADAR)
01:51AM -31.6885 150.8312 180° South 167 192 9,100  Level Aus ATC (RADAR)
01:51AM -31.7078 150.8307 181° South 165 190 9,100  Level Aus ATC (RADAR)
01:52AM -31.7431 150.8311 179° South 167 192 9,100  Level Aus ATC (RADAR)
01:53AM -31.7662 150.8309 181° South 166 191 9,100  Level Aus ATC (RADAR)
01:53AM -31.7974 150.8313 179° South 166 191 9,100  Level Aus ATC (RADAR)
01:54AM -31.8283 150.8311 180° South 164 189 9,100  Level Aus ATC (RADAR)
01:55AM -31.8749 150.8313 180° South 167 192 9,100  Level Aus ATC (RADAR)
01:56AM -31.9063 150.8312 180° South 167 192 9,100  Level Aus ATC (RADAR)
01:56AM -31.9335 150.8314 180° South 166 191 9,100  Level Aus ATC (RADAR)
01:57AM -31.9687 150.8310 181° South 167 192 9,100  Level Aus ATC (RADAR)
01:57AM -31.9879 150.8312 179° South 164 189 9,100  Level Aus ATC (RADAR)
01:58AM -32.0146 150.8314 180° South 164 189 9,100  Level Aus ATC (RADAR)
01:59AM -32.0533 150.8312 180° South 163 188 9,100  Level Aus ATC (RADAR)
02:00AM -32.1150 150.8285 182° South 168 193 9,100  Level Aus ATC (RADAR)
02:01AM -32.1383 150.8277 182° South 166 191 9,100  Level Aus ATC (RADAR)
02:01AM -32.1576 150.8273 181° South 165 190 9,100  Level Aus ATC (RADAR)
02:02AM -32.1845 150.8262 182° South 164 189 9,100  Level Aus ATC (RADAR)
02:02AM -32.2193 150.8247 182° South 165 190 9,100  Level Aus ATC (RADAR)
02:03AM -32.2468 150.8238 182° South 167 192 9,100 -120 Level Aus ATC (RADAR)
02:04AM -32.2852 150.8228 181° South 164 189 9,000 -120 Descending Aus ATC (RADAR)
02:04AM -32.3045 150.8218 182° South 164 189 9,000  Level Aus ATC (RADAR)
02:05AM -32.3473 150.8206 181° South 167 192 9,000  Level Aus ATC (RADAR)
02:06AM -32.3788 150.8192 182° South 167 192 9,000  Level Aus ATC (RADAR)
02:06AM -32.4084 150.8180 182° South 170 196 9,000  Level Aus ATC (RADAR)
02:07AM -32.4493 150.8170 181° South 167 192 9,000  Level Aus ATC (RADAR)
02:08AM -32.4764 150.8162 181° South 165 190 9,000  Level Aus ATC (RADAR)
02:09AM -32.5150 150.8145 182° South 165 190 9,000  Level Aus ATC (RADAR)
02:09AM -32.5303 150.8141 181° South 162 186 9,000 -540 Level Aus ATC (RADAR)
02:09AM -32.5406 150.8136 182° South 166 191 8,700 -600 Descending FlightAware ADS-B (YFHO)
02:10AM -32.5545 150.8131 182° South 167 192 8,700  Level FlightAware ADS-B (YFHO)
02:10AM -32.5736 150.8125 182° South 166 191 8,700  Level FlightAware ADS-B (YFHO)
02:10AM -32.5858 150.8120 182° South 166 191 8,700  Level FlightAware ADS-B (YFHO)
02:11AM -32.5964 150.8117 182° South 166 191 8,700  Level FlightAware ADS-B (YFHO)
02:11AM -32.6157 150.8110 182° South 166 191 8,700  Level FlightAware ADS-B (YFHO)
02:11AM -32.6305 150.8105 182° South 165 190 8,700  Level FlightAware ADS-B (YFHO)
02:12AM -32.6400 150.8102 182° South 165 190 8,700  Level FlightAware ADS-B (YFHO)
02:12AM -32.6534 150.8097 182° South 164 189 8,700  Level FlightAware ADS-B (YFHO)
02:12AM -32.6640 150.8093 182° South 165 190 8,700  Level FlightAware ADS-B (YFHO)
02:12AM -32.6786 150.8088 182° South 165 190 8,700  Level FlightAware ADS-B (YFHO)
02:13AM -32.6865 150.8085 182° South 165 190 8,700  Level FlightAware ADS-B (YFHO)
02:13AM -32.7014 150.8080 182° South 163 188 8,700  Level FlightAware ADS-B (YFHO)
02:13AM -32.7126 150.8076 182° South 163 188 8,700  Level FlightAware ADS-B (YFHO)
02:13AM -32.7246 150.8072 182° South 163 188 8,700  Level FlightAware ADS-B (YFHO)
02:14AM -32.7421 150.8066 182° South 164 189 8,700  Level FlightAware ADS-B (YFHO)
02:14AM -32.7627 150.8059 182° South 163 188 8,700  Level FlightAware ADS-B (YFHO)
02:15AM -32.7859 150.8050 182° South 164 189 8,700  Level FlightAware ADS-B (YFHO)
02:15AM -32.8010 150.8046 182° South 163 188 8,700  Level FlightAware ADS-B (YFHO)
02:15AM -32.8128 150.8042 182° South 163 188 8,700  Level FlightAware ADS-B (YFHO)
02:16AM -32.8268 150.8037 182° South 162 186 8,700  Level FlightAware ADS-B (YFHO)
02:16AM -32.8418 150.8032 182° South 160 184 8,700  Level FlightAware ADS-B (YFHO)
02:16AM -32.8565 150.8026 182° South 160 184 8,700  Level FlightAware ADS-B (YFHO)
02:17AM -32.8694 150.8022 182° South 160 184 8,700  Level FlightAware ADS-B (YFHO)
02:17AM -32.8857 150.8016 182° South 160 184 8,700  Level FlightAware ADS-B (YFHO)
02:17AM -32.8966 150.8012 182° South 161 185 8,700  Level FlightAware ADS-B (YFHO)
02:17AM -32.9102 150.8007 182° South 161 185 8,700  Level FlightAware ADS-B (YFHO)
02:18AM -32.9212 150.8003 182° South 161 185 8,700  Level FlightAware ADS-B (YFHO)
02:18AM -32.9304 150.8000 182° South 161 185 8,700  Level FlightAware ADS-B (YFHO)
02:18AM -32.9463 150.7994 182° South 162 186 8,700  Level FlightAware ADS-B
02:18AM -32.9576 150.7990 182° South 163 188 8,700  Level FlightAware ADS-B (YFHO)
02:19AM -32.9716 150.7984 182° South 163 188 8,700  Level FlightAware ADS-B (YFHO)
02:19AM -32.9837 150.7981 182° South 164 189 8,700  Level FlightAware ADS-B (YFHO)
02:19AM -32.9987 150.7975 182° South 163 188 8,700  Level FlightAware ADS-B (YFHO)
02:20AM -33.0101 150.7971 182° South 163 188 8,700  Level FlightAware ADS-B (YFHO)
02:20AM -33.0193 150.7968 182° South 163 188 8,700  Level FlightAware ADS-B (YFHO)
02:20AM -33.0368 150.7962 181° South 162 186 8,700  Level FlightAware ADS-B
02:21AM -33.0481 150.7959 182° South 163 188 8,700  Level FlightAware ADS-B (YFHO)
02:21AM -33.0609 150.7954 182° South 163 188 8,700  Level FlightAware ADS-B (YFHO)
02:21AM -33.0875 150.7945 182° South 161 185 8,700  Level FlightAware ADS-B
02:22AM -33.0982 150.7941 182° South 160 184 8,700  Level FlightAware ADS-B (YFHO)
02:22AM -33.1099 150.7937 182° South 158 182 8,700  Level FlightAware ADS-B (YFHO)
02:22AM -33.1199 150.7933 182° South 159 183 8,700  Level FlightAware ADS-B (YFHO)
02:22AM -33.1327 150.7929 182° South 159 183 8,700  Level FlightAware ADS-B (YFHO)
02:23AM -33.1453 150.7925 182° South 160 184 8,700  Level FlightAware ADS-B (YFHO)
02:23AM -33.1564 150.7921 182° South 160 184 8,700  Level FlightAware ADS-B (YFHO)
02:23AM -33.1687 150.7917 182° South 161 185 8,700  Level FlightAware ADS-B (YFHO)
02:23AM -33.1796 150.7913 182° South 161 185 8,700  Level FlightAware ADS-B (YFHO)
02:24AM -33.1940 150.7907 182° South 163 188 8,700  Level FlightAware ADS-B
02:24AM -33.2043 150.7904 182° South 163 188 8,700  Level FlightAware ADS-B (YFHO)
02:24AM -33.2214 150.7898 182° South 165 190 8,700  Level FlightAware ADS-B (YFHO)
02:25AM -33.2287 150.7895 182° South 166 191 8,700  Level FlightAware ADS-B (YFHO)
02:25AM -33.2451 150.7889 182° South 167 192 8,700  Level FlightAware ADS-B (YFHO)
02:25AM -33.2567 150.7885 182° South 168 193 8,700  Level FlightAware ADS-B (YFHO)
02:25AM -33.2692 150.7881 182° South 169 194 8,700  Level FlightAware ADS-B (YFHO)
02:26AM -33.2856 150.7875 182° South 170 196 8,700 -180 Level FlightAware ADS-B (YFHO)
02:26AM -33.2976 150.7871 182° South 175 201 8,600 -600 Descending FlightAware ADS-B (YFHO)
02:26AM -33.3100 150.7866 182° South 178 205 8,400 -600 Descending FlightAware ADS-B
02:27AM -33.3246 150.7861 182° South 180 207 8,300 -360 Descending FlightAware ADS-B (YFHO)
02:27AM -33.3387 150.7856 182° South 179 206 8,200 -420 Descending FlightAware ADS-B (YFHO)
02:27AM -33.3477 150.7853 182° South 179 206 8,100 -540 Descending FlightAware ADS-B (YFHO)
02:27AM -33.3659 150.7846 182° South 178 205 7,900 -660 Descending FlightAware ADS-B (YSSY / SYD)
02:28AM -33.3797 150.7841 182° South 177 204 7,700 -480 Descending FlightAware ADS-B
02:28AM -33.3975 150.7834 182° South 176 203 7,600 -360 Descending FlightAware ADS-B (YFHO)
02:28AM -33.4097 150.7830 182° South 175 201 7,500 -420 Descending FlightAware ADS-B (YFHO)
02:28AM -33.4219 150.7826 182° South 174 200 7,400 -420 Descending FlightAware ADS-B (YFHO)
02:29AM -33.4320 150.7823 182° South 173 199 7,300 -600 Descending FlightAware ADS-B (YFHO)
02:29AM -33.4483 150.7817 182° South 170 196 7,100 -540 Descending FlightAware ADS-B
02:29AM -33.4627 150.7811 182° South 170 196 7,000 -540 Descending FlightAware ADS-B (YFHO)
02:30AM -33.4746 150.7807 182° South 171 197 6,800 -840 Descending FlightAware ADS-B (YFHO)
02:30AM -33.4866 150.7803 182° South 173 199 6,600 -720 Descending FlightAware ADS-B (YFHO)
02:30AM -33.5009 150.7798 182° South 176 203 6,400 -540 Descending FlightAware ADS-B (YFHO)
02:30AM -33.5150 150.7793 182° South 178 205 6,300 -600 Descending FlightAware ADS-B (YFHO)
02:31AM -33.5276 150.7788 182° South 180 207 6,100 -600 Descending FlightAware ADS-B (YFHO)
02:31AM -33.5369 150.7785 182° South 181 208 6,000 -600 Descending FlightAware ADS-B (YFHO)
02:31AM -33.5528 150.7780 182° South 183 211 5,800 -600 Descending FlightAware ADS-B (YFHO)
02:31AM -33.5657 150.7775 182° South 181 208 5,700 -420 Descending FlightAware ADS-B (YFHO)
02:32AM -33.5810 150.7769 182° South 177 204 5,600 -420 Descending FlightAware ADS-B
02:32AM -33.5924 150.7766 177° South 179 206 5,500 -660 Descending FlightAware ADS-B (YSSY / SYD)
02:32AM -33.5910 150.7766 175° South 180 207 5,400 -780 Descending FlightAware ADS-B
02:32AM -33.5981 150.7773 167° South 181 208 5,400 -780 Level FlightAware ADS-B (YFHO)
02:32AM -33.6025 150.7790 158° South 182 209 5,300 -780 Descending FlightAware ADS-B (YSSY / SYD)
02:32AM -33.6109 150.7836 155° Southeast 182 209 5,200 -420 Descending FlightAware ADS-B (YFHO)
02:33AM -33.6248 150.7909 157° South 180 207 5,100 -600 Descending FlightAware ADS-B (YFHO)
02:33AM -33.6356 150.7963 157° South 179 206 4,900 -780 Descending FlightAware ADS-B (YFHO)
02:33AM -33.6480 150.8026 157° South 179 206 4,700 -600 Descending FlightAware ADS-B (YSSY / SYD)
02:33AM -33.6600 150.8086 157° South 178 205 4,600 -600 Descending FlightAware ADS-B (YFHO)
02:34AM -33.6656 150.8116 157° South 177 204 4,400 -600 Descending FlightAware ADS-B (YFHO)
02:34AM -33.6824 150.8201 157° South 178 205 4,300 -600 Descending FlightAware ADS-B (YFHO)
02:34AM -33.6964 150.8273 157° South 181 208 4,100 -780 Descending FlightAware ADS-B
02:35AM -33.7094 150.8339 157° South 182 209 3,900 -780 Descending FlightAware ADS-B (YFHO)
02:35AM -33.7209 150.8398 157° South 181 208 3,700 -840 Descending FlightAware ADS-B (YFHO)
02:35AM -33.7324 150.8457 157° South 181 208 3,500 -780 Descending FlightAware ADS-B (YSSY / SYD)
02:35AM -33.7458 150.8526 157° South 180 207 3,300 -660 Descending FlightAware ADS-B (YFHO)
02:36AM -33.7608 150.8602 157° South 178 205 3,100 -720 Descending FlightAware ADS-B (YFHO)
02:36AM -33.7737 150.8669 157° South 177 204 2,900 -780 Descending FlightAware ADS-B
02:36AM -33.7857 150.8731 157° South 175 201 2,700 -780 Descending FlightAware ADS-B (YFHO)
02:36AM -33.7964 150.8785 157° South 175 201 2,500 -600 Descending FlightAware ADS-B (YFHO)
02:37AM -33.8083 150.8847 157° South 174 200 2,400 -600 Descending FlightAware ADS-B (YFHO)
02:37AM -33.8200 150.8907 157° South 172 198 2,200 -600 Descending FlightAware ADS-B (YFHO)
02:37AM -33.8230 150.8922 156° South 158 182 2,200  Level FlightAware ADS-B (YRAY)
02:37AM -33.8341 150.8979 157° South 159 183 2,200 -240 Level FlightAware ADS-B (YRAY)
02:38AM -33.8438 150.9029 157° South 135 155 2,100 -360 Descending FlightAware ADS-B
02:38AM -33.8462 150.9040 157° South 133 153 2,100 -600 Level FlightAware ADS-B (YFHO)
02:38AM -33.8517 150.9069 157° South 127 146 1,900 -840 Descending FlightAware ADS-B (YFHO)
02:38AM -33.8645 150.9135 157° South 124 143 1,600 -1,020 Descending FlightAware ADS-B (YFHO)
02:38AM -33.8685 150.9152 162° South 124 143 1,500 -1,500 Descending FlightAware ADS-B
02:38AM -33.8673 150.9148 157° South 124 143 1,400 -780 Descending FlightAware ADS-B (YFHO)
02:38AM -33.8723 150.9170 153° Southeast 124 143 1,400 -540 Level FlightAware ADS-B (YFHO)
02:39AM -33.8746 150.9186 150° Southeast 124 143 1,300 -1,080 Descending FlightAware ADS-B (YFHO)
02:39AM -33.8833 150.9255 143° Southeast 125 144 1,000 -1,020 Descending FlightAware ADS-B (YSSY / SYD)
02:39AM -33.8899 150.9328 131° Southeast 120 138 800 -720 Descending FlightAware ADS-B (YRAY)
02:39AM -33.8930 150.9378 125° Southeast 122 140 700 -420 Descending FlightAware ADS-B
02:39AM -33.8911 150.9345 133° Southeast 125 144 700 -600 Level FlightAware ADS-B (YWST)
02:40AM -33.8993 150.9494 124° Southeast 119 137 500 -480 Descending FlightAware ADS-B
02:40AM -33.9028 150.9557 120° Southeast 108 124 500 -300 Level FlightAware ADS-B (YRAY)
02:40AM -33.9052 150.9600 121° Southeast 103 119 400 -600 Descending FlightAware ADS-B (YRAY)
02:40AM -33.9084 150.9655 124° Southeast 102 117 300 -600 Descending FlightAware ADS-B
02:40AM -33.9107 150.9698 123° Southeast 102 117 200 -720 Descending FlightAware ADS-B
02:40AM -33.9141 150.9759 124° Southeast 101 116 -780 Descending FlightAware ADS-B
02:41AM -33.9231 150.9920 123° Southeast 86 99  Level FlightAware ADS-B